Time;durP1;ratioP1;P1;durP2;ratioP2;P2;SDS_P1;SDS_P2;PMS_P1;PMS_P2;Temp;Humidity;BMP_temperature;BMP_pressure;BME280_temperature;BME280_humidity;BME280_pressure;Samples;Min_cycle;Max_cycle;Signal;HPM_P1;HPM_P2
2022/02/13 00:02:18;;;;;;;7.60;3.67;;;4.50;99.90;;;;;;5037248;28;20616;-76
2022/02/13 00:04:43;;;;;;;4.20;3.80;;;4.50;99.90;;;;;;5055986;28;20237;-77
2022/02/13 00:07:09;;;;;;;4.85;4.35;;;4.40;99.90;;;;;;5055035;28;20163;-76
2022/02/13 00:09:37;;;;;;;4.80;3.80;;;4.30;99.90;;;;;;5060538;28;20163;-76
2022/02/13 00:12:04;;;;;;;5.53;3.83;;;4.30;99.90;;;;;;5055316;28;20285;-79
2022/02/13 00:14:30;;;;;;;8.52;4.13;;;4.30;99.90;;;;;;5055088;28;20316;-78
2022/02/13 00:16:56;;;;;;;4.45;3.40;;;4.30;99.90;;;;;;5055044;28;20631;-82
2022/02/13 00:19:21;;;;;;;8.35;3.92;;;4.20;99.90;;;;;;5054969;28;20211;-80
2022/02/13 00:21:47;;;;;;;7.90;3.70;;;4.10;99.90;;;;;;5055374;28;20666;-80
2022/02/13 00:24:13;;;;;;;5.82;3.85;;;4.20;99.90;;;;;;5054440;28;20183;-77
2022/02/13 00:26:38;;;;;;;9.93;4.55;;;4.30;99.90;;;;;;5054540;28;20167;-77
2022/02/13 00:29:04;;;;;;;5.53;4.07;;;4.30;99.90;;;;;;5055233;28;20183;-78
2022/02/13 00:31:30;;;;;;;5.78;4.00;;;4.30;99.90;;;;;;5037006;28;20199;-80
2022/02/13 00:33:56;;;;;;;7.28;4.00;;;4.40;99.90;;;;;;5054379;28;20191;-76
2022/02/13 00:36:21;;;;;;;3.92;3.53;;;4.40;99.90;;;;;;5036216;28;20167;-79
2022/02/13 00:38:47;;;;;;;3.53;3.17;;;4.40;99.90;;;;;;5035252;28;20225;-88
2022/02/13 00:41:13;;;;;;;6.38;3.92;;;4.50;99.90;;;;;;5054690;28;20164;-85
2022/02/13 00:43:39;;;;;;;6.00;4.22;;;4.40;99.90;;;;;;5053668;28;20190;-80
2022/02/13 00:46:05;;;;;;;5.85;3.70;;;4.30;99.90;;;;;;5057730;28;20206;-75
2022/02/13 00:48:31;;;;;;;3.53;3.15;;;4.30;99.90;;;;;;5062209;28;20167;-75
2022/02/13 00:50:56;;;;;;;16.58;4.22;;;4.30;99.90;;;;;;5064518;28;20167;-76
2022/02/13 00:53:22;;;;;;;7.93;4.03;;;4.20;99.90;;;;;;5071646;28;20246;-76
2022/02/13 00:55:48;;;;;;;16.00;4.18;;;4.20;99.90;;;;;;5060828;28;20167;-80
2022/02/13 00:58:13;;;;;;;5.43;3.83;;;4.20;99.90;;;;;;5042722;28;20199;-75
2022/02/13 01:00:39;;;;;;;7.28;3.75;;;4.30;99.90;;;;;;5043814;28;20174;-76
2022/02/13 01:03:04;;;;;;;7.75;3.10;;;4.30;99.90;;;;;;5060683;28;20198;-76
2022/02/13 01:05:30;;;;;;;3.70;3.40;;;4.30;99.90;;;;;;5061722;28;20174;-76
2022/02/13 01:07:55;;;;;;;3.55;3.17;;;4.10;99.90;;;;;;5062992;28;20166;-76
2022/02/13 01:10:21;;;;;;;7.35;3.55;;;4.20;99.90;;;;;;5060897;28;20561;-77
2022/02/13 01:12:47;;;;;;;3.20;2.40;;;4.30;99.90;;;;;;5060620;28;20218;-76
2022/02/13 01:15:12;;;;;;;6.72;3.55;;;4.30;99.90;;;;;;5060508;28;20218;-76
2022/02/13 01:17:38;;;;;;;4.82;3.42;;;4.10;99.90;;;;;;5060978;28;20166;-77
2022/02/13 01:20:04;;;;;;;7.78;3.92;;;4.20;99.90;;;;;;5059758;28;20208;-81
2022/02/13 01:22:30;;;;;;;5.30;3.45;;;4.10;99.90;;;;;;5060240;28;20171;-75
2022/02/13 01:24:56;;;;;;;12.10;3.33;;;4.10;99.90;;;;;;5060728;28;20220;-76
2022/02/13 01:27:22;;;;;;;8.27;3.92;;;4.10;99.90;;;;;;5062001;28;20182;-76
2022/02/13 01:29:48;;;;;;;5.30;4.05;;;4.20;99.90;;;;;;5060196;28;20187;-76
2022/02/13 01:32:13;;;;;;;3.35;3.05;;;4.20;99.90;;;;;;5061020;28;20206;-76
2022/02/13 01:34:39;;;;;;;5.25;3.50;;;4.20;99.90;;;;;;5060315;28;20187;-76
2022/02/13 01:37:06;;;;;;;5.47;3.47;;;4.30;99.90;;;;;;5060436;28;20160;-76
2022/02/13 01:39:32;;;;;;;3.90;3.25;;;4.30;99.90;;;;;;5060080;28;20206;-78
2022/02/13 01:41:57;;;;;;;6.78;2.83;;;4.10;99.90;;;;;;5042128;28;20170;-75
2022/02/13 01:44:32;;;;;;;10.40;3.90;;;4.10;99.90;;;;;;5041088;28;20191;-75
2022/02/13 01:46:58;;;;;;;4.60;3.65;;;4.10;99.90;;;;;;5060157;28;20163;-77
2022/02/13 01:49:24;;;;;;;5.55;3.38;;;4.20;99.90;;;;;;5059542;28;20167;-75
2022/02/13 01:51:51;;;;;;;3.88;3.20;;;4.40;99.90;;;;;;5059877;28;20173;-76
2022/02/13 01:54:17;;;;;;;5.55;3.00;;;4.30;99.90;;;;;;5041580;28;20198;-76
2022/02/13 01:56:43;;;;;;;5.57;3.80;;;4.10;99.90;;;;;;5058343;28;20163;-76
2022/02/13 01:59:10;;;;;;;5.55;3.85;;;4.10;99.90;;;;;;5055743;28;20202;-76
2022/02/13 02:01:36;;;;;;;7.78;3.58;;;4.10;99.90;;;;;;5038884;28;20179;-75
2022/02/13 02:04:02;;;;;;;7.03;3.72;;;4.20;99.90;;;;;;5039272;28;20202;-76
2022/02/13 02:06:28;;;;;;;5.90;3.35;;;4.20;99.90;;;;;;5056180;28;20166;-76
2022/02/13 02:08:54;;;;;;;5.82;3.70;;;4.20;99.90;;;;;;5056665;28;20171;-77
2022/02/13 02:11:19;;;;;;;3.60;2.72;;;4.20;99.90;;;;;;5056285;28;20164;-77
2022/02/13 02:13:45;;;;;;;5.75;3.65;;;4.10;99.90;;;;;;5055921;28;20202;-76
2022/02/13 02:16:11;;;;;;;6.07;4.03;;;4.10;99.90;;;;;;5056221;28;20715;-77
2022/02/13 02:18:36;;;;;;;4.22;2.95;;;4.10;99.90;;;;;;5055863;28;20203;-78
2022/02/13 02:21:04;;;;;;;5.78;3.60;;;4.30;99.90;;;;;;5056584;28;20175;-76
2022/02/13 02:23:32;;;;;;;5.43;3.75;;;4.40;99.90;;;;;;5056581;28;20650;-77
2022/02/13 02:25:58;;;;;;;4.15;3.20;;;4.30;99.90;;;;;;5037945;28;20191;-76
2022/02/13 02:28:24;;;;;;;4.40;3.47;;;4.10;99.90;;;;;;5055460;28;20578;-76
2022/02/13 02:30:49;;;;;;;5.70;3.92;;;4.10;99.90;;;;;;5055445;28;20558;-77
2022/02/13 02:33:15;;;;;;;6.28;3.65;;;4.10;99.90;;;;;;5055842;28;20217;-77
2022/02/13 02:35:41;;;;;;;6.05;3.58;;;4.10;99.90;;;;;;5056259;28;20501;-78
2022/02/13 02:38:07;;;;;;;4.43;3.22;;;4.00;99.90;;;;;;5055934;28;20365;-77
2022/02/13 02:40:33;;;;;;;4.45;3.40;;;4.00;99.90;;;;;;5037917;28;20668;-80
2022/02/13 02:42:58;;;;;;;8.32;3.17;;;4.00;99.90;;;;;;5056188;28;20270;-77
2022/02/13 02:45:24;;;;;;;7.78;4.10;;;4.10;99.90;;;;;;5055793;28;20210;-76
2022/02/13 02:47:50;;;;;;;7.38;4.07;;;4.10;99.90;;;;;;5055764;28;20172;-77
2022/02/13 02:50:17;;;;;;;6.97;3.30;;;4.10;99.90;;;;;;5055868;28;20173;-77
2022/02/13 02:52:42;;;;;;;5.20;3.33;;;4.00;99.90;;;;;;5058634;28;20167;-77
2022/02/13 02:55:08;;;;;;;7.85;3.97;;;4.10;99.90;;;;;;5057764;28;20705;-78
2022/02/13 02:57:34;;;;;;;8.38;4.30;;;4.20;99.90;;;;;;5045972;28;20199;-77
2022/02/13 03:00:00;;;;;;;5.20;3.58;;;4.30;99.90;;;;;;5055624;28;20198;-77
2022/02/13 03:02:26;;;;;;;6.07;4.03;;;4.30;99.90;;;;;;5055962;28;20493;-76
2022/02/13 03:04:52;;;;;;;7.38;3.60;;;4.30;99.90;;;;;;5056181;28;20639;-76
2022/02/13 03:07:17;;;;;;;6.90;3.78;;;4.40;99.90;;;;;;5055598;28;20160;-78
2022/02/13 03:09:43;;;;;;;4.25;3.85;;;4.20;99.90;;;;;;5054630;28;20174;-77
2022/02/13 03:12:09;;;;;;;4.22;3.70;;;4.10;99.90;;;;;;5055044;28;20206;-77
2022/02/13 03:14:35;;;;;;;6.25;3.97;;;4.20;99.90;;;;;;5055315;28;20195;-76
2022/02/13 03:17:03;;;;;;;6.35;4.43;;;4.30;99.90;;;;;;5055841;28;20167;-77
2022/02/13 03:19:29;;;;;;;6.00;4.45;;;4.30;99.90;;;;;;5055823;28;20269;-76
2022/02/13 03:21:55;;;;;;;7.35;4.65;;;4.20;99.90;;;;;;5055416;28;20171;-76
2022/02/13 03:24:20;;;;;;;8.60;4.53;;;4.10;99.90;;;;;;5054875;28;20186;-76
2022/02/13 03:26:46;;;;;;;4.18;3.47;;;4.10;99.90;;;;;;5036229;28;20167;-76
2022/02/13 03:29:11;;;;;;;4.72;4.22;;;4.10;99.90;;;;;;5055147;28;20190;-78
2022/02/13 03:31:38;;;;;;;5.13;4.10;;;4.10;99.90;;;;;;5054485;28;20167;-76
2022/02/13 03:34:04;;;;;;;6.43;4.38;;;4.10;99.90;;;;;;5036010;28;20197;-76
2022/02/13 03:36:29;;;;;;;4.05;3.65;;;4.00;99.90;;;;;;5054015;28;20167;-76
2022/02/13 03:38:55;;;;;;;5.50;4.32;;;4.00;99.90;;;;;;5054140;28;20233;-76
2022/02/13 03:41:21;;;;;;;5.13;3.45;;;4.10;99.90;;;;;;5054039;28;20571;-76
2022/02/13 03:43:46;;;;;;;5.47;4.72;;;4.20;99.90;;;;;;5057948;28;20187;-76
2022/02/13 03:46:12;;;;;;;5.47;4.57;;;4.20;99.90;;;;;;5063593;28;20768;-76
2022/02/13 03:48:37;;;;;;;4.47;3.75;;;4.20;99.90;;;;;;5053899;28;20172;-76
2022/02/13 03:51:03;;;;;;;3.90;3.33;;;4.40;99.90;;;;;;5074103;28;20251;-78
2022/02/13 03:53:28;;;;;;;4.47;4.05;;;4.30;99.90;;;;;;5072650;28;20201;-79
2022/02/13 03:55:54;;;;;;;4.25;3.75;;;4.20;99.90;;;;;;5059552;28;20163;-76
2022/02/13 03:58:19;;;;;;;4.65;3.95;;;4.20;99.90;;;;;;5054144;28;20614;-76
2022/02/13 04:00:45;;;;;;;10.77;3.97;;;4.10;99.90;;;;;;5053886;28;20167;-77
2022/02/13 04:03:11;;;;;;;8.25;3.47;;;4.30;99.90;;;;;;5057909;28;20236;-76
2022/02/13 04:05:36;;;;;;;4.00;3.60;;;4.50;99.90;;;;;;5058720;28;20167;-79
2022/02/13 04:08:02;;;;;;;7.05;3.53;;;4.50;99.90;;;;;;5066839;28;20170;-84
2022/02/13 04:10:28;;;;;;;5.10;3.50;;;4.50;99.90;;;;;;5057341;28;20648;-75
2022/02/13 04:12:53;;;;;;;6.30;3.58;;;4.20;99.90;;;;;;5055893;28;20672;-76
2022/02/13 04:15:19;;;;;;;4.82;3.75;;;4.00;99.90;;;;;;5053514;28;20225;-76
2022/02/13 04:17:45;;;;;;;6.20;3.88;;;4.00;99.90;;;;;;5053197;28;20160;-76
2022/02/13 04:20:11;;;;;;;4.80;3.53;;;4.10;99.90;;;;;;5052220;28;20210;-76
2022/02/13 04:22:36;;;;;;;4.38;3.20;;;4.10;99.90;;;;;;5052734;28;20516;-75
2022/02/13 04:25:03;;;;;;;4.57;3.42;;;4.10;99.90;;;;;;5052858;28;20178;-81
2022/02/13 04:27:29;;;;;;;5.00;3.70;;;4.10;99.90;;;;;;5035027;28;20187;-79
2022/02/13 04:29:54;;;;;;;6.38;3.75;;;4.20;99.90;;;;;;5053076;28;20171;-76
2022/02/13 04:32:20;;;;;;;4.65;3.53;;;4.20;99.90;;;;;;5053352;28;20168;-76
2022/02/13 04:34:46;;;;;;;4.15;3.60;;;4.30;99.90;;;;;;5052555;28;20679;-76
2022/02/13 04:37:13;;;;;;;5.75;4.05;;;4.20;99.90;;;;;;5053115;28;20523;-75
2022/02/13 04:39:39;;;;;;;4.60;3.70;;;4.20;99.90;;;;;;5052608;28;20562;-80
2022/02/13 04:42:04;;;;;;;7.80;3.83;;;4.20;99.90;;;;;;5053083;28;20159;-76
2022/02/13 04:44:30;;;;;;;5.85;3.85;;;4.20;99.90;;;;;;5052974;28;20244;-76
2022/02/13 04:46:56;;;;;;;3.63;3.33;;;4.20;99.90;;;;;;5034790;28;20615;-75
2022/02/13 04:49:21;;;;;;;7.70;3.35;;;4.10;99.90;;;;;;5053080;28;20163;-76
2022/02/13 04:51:47;;;;;;;3.92;3.53;;;4.20;99.90;;;;;;5053168;28;20631;-78
2022/02/13 04:54:12;;;;;;;7.07;4.63;;;4.30;99.90;;;;;;5052642;28;20226;-76
2022/02/13 04:56:38;;;;;;;7.15;3.65;;;4.30;99.90;;;;;;5052708;28;20547;-78
2022/02/13 04:59:04;;;;;;;3.95;3.45;;;4.20;99.90;;;;;;5034691;28;20217;-76
2022/02/13 05:01:29;;;;;;;6.30;3.05;;;4.10;99.90;;;;;;5057593;28;20156;-84
2022/02/13 05:03:56;;;;;;;4.10;3.67;;;4.10;99.90;;;;;;5055765;28;20556;-86
2022/02/13 05:06:22;;;;;;;12.45;4.50;;;4.20;99.90;;;;;;5057006;28;20228;-78
2022/02/13 05:08:47;;;;;;;9.05;3.75;;;4.30;99.90;;;;;;5039655;28;20702;-86
2022/02/13 05:11:13;;;;;;;4.05;3.28;;;4.20;99.90;;;;;;5056693;28;20266;-83
2022/02/13 05:13:39;;;;;;;6.53;3.25;;;4.20;99.90;;;;;;5038747;28;20265;-88
2022/02/13 05:16:05;;;;;;;10.07;4.05;;;4.10;99.90;;;;;;5058470;28;20239;-76
2022/02/13 05:18:30;;;;;;;5.03;3.28;;;4.00;99.90;;;;;;5060334;28;20167;-76
2022/02/13 05:20:56;;;;;;;3.65;3.35;;;4.00;99.90;;;;;;5076066;28;20172;-79
2022/02/13 05:23:24;;;;;;;4.63;3.38;;;4.10;99.90;;;;;;5065375;28;20304;-76
2022/02/13 05:25:49;;;;;;;11.18;4.53;;;4.10;99.90;;;;;;5056243;28;20167;-81
2022/02/13 05:28:15;;;;;;;6.00;3.78;;;4.10;99.90;;;;;;5055834;28;20191;-76
2022/02/13 05:30:41;;;;;;;5.07;4.05;;;4.10;99.90;;;;;;5054615;28;20163;-76
2022/02/13 05:33:06;;;;;;;5.70;3.67;;;4.20;99.90;;;;;;5058915;28;20194;-75
2022/02/13 05:35:32;;;;;;;5.28;3.80;;;4.00;99.90;;;;;;5059571;28;20693;-78
2022/02/13 05:37:57;;;;;;;4.10;3.10;;;4.00;99.90;;;;;;5058810;28;20176;-76
2022/02/13 05:40:23;;;;;;;6.25;3.50;;;3.90;99.90;;;;;;5059221;28;20602;-76
2022/02/13 05:42:49;;;;;;;4.78;4.00;;;4.20;99.90;;;;;;5059871;28;20683;-75
2022/02/13 05:45:14;;;;;;;4.25;3.83;;;4.20;99.90;;;;;;5061038;28;20209;-76
2022/02/13 05:47:41;;;;;;;8.48;3.42;;;4.20;99.90;;;;;;5057087;28;20163;-77
2022/02/13 05:50:08;;;;;;;5.00;3.92;;;4.20;99.90;;;;;;5057768;28;20163;-81
2022/02/13 05:52:33;;;;;;;6.03;3.75;;;4.00;99.90;;;;;;5058125;28;20175;-85
2022/02/13 05:54:59;;;;;;;6.25;3.25;;;4.10;99.90;;;;;;5038903;28;20202;-76
2022/02/13 05:57:25;;;;;;;3.65;3.35;;;4.10;99.90;;;;;;5056489;28;20734;-76
2022/02/13 05:59:50;;;;;;;5.28;3.45;;;4.20;99.90;;;;;;5055900;28;20735;-76
2022/02/13 06:02:16;;;;;;;11.45;3.47;;;4.10;99.90;;;;;;5055816;28;20577;-77
2022/02/13 06:04:41;;;;;;;6.38;3.90;;;4.10;99.90;;;;;;5056235;28;20193;-76
2022/02/13 06:07:07;;;;;;;7.00;3.90;;;4.10;99.90;;;;;;5056564;28;20213;-76
2022/02/13 06:09:33;;;;;;;6.53;4.10;;;4.00;99.90;;;;;;5056124;28;20190;-76
2022/02/13 06:11:58;;;;;;;6.45;3.58;;;4.00;99.90;;;;;;5056649;28;20163;-77
2022/02/13 06:14:24;;;;;;;6.05;3.58;;;4.10;99.90;;;;;;5056211;28;20556;-76
2022/02/13 06:16:49;;;;;;;4.93;3.03;;;4.00;99.90;;;;;;5055821;28;20164;-76
2022/02/13 06:19:15;;;;;;;5.00;3.78;;;4.00;99.90;;;;;;5055744;28;20215;-76
2022/02/13 06:21:41;;;;;;;5.63;3.30;;;3.90;99.90;;;;;;5056057;28;20194;-80
2022/02/13 06:24:06;;;;;;;13.27;3.63;;;4.10;99.90;;;;;;5056260;28;20202;-78
2022/02/13 06:26:35;;;;;;;6.18;3.60;;;4.30;99.90;;;;;;5057186;28;20163;-78
2022/02/13 06:29:02;;;;;;;6.28;2.97;;;4.30;99.90;;;;;;5056493;28;20190;-81
2022/02/13 06:31:27;;;;;;;4.10;2.90;;;4.30;99.90;;;;;;5057569;28;20258;-76
2022/02/13 06:33:53;;;;;;;6.63;3.10;;;4.20;99.90;;;;;;5057971;28;20249;-78
2022/02/13 06:36:18;;;;;;;4.45;2.80;;;4.30;99.90;;;;;;5056164;28;20171;-81
2022/02/13 06:38:44;;;;;;;7.45;3.35;;;4.30;99.90;;;;;;5038483;28;20215;-76
2022/02/13 06:41:10;;;;;;;4.55;3.65;;;4.20;99.90;;;;;;5055897;28;20174;-75
2022/02/13 06:43:35;;;;;;;5.20;2.90;;;4.20;99.90;;;;;;5053879;28;20198;-76
2022/02/13 06:46:01;;;;;;;4.88;3.25;;;4.20;99.90;;;;;;5054606;28;20178;-77
2022/02/13 06:48:31;;;;;;;3.47;3.17;;;4.30;99.90;;;;;;5054760;28;20167;-78
2022/02/13 06:51:00;;;;;;;2.60;2.38;;;4.30;99.90;;;;;;5054682;28;20159;-78
2022/02/13 06:53:25;;;;;;;11.60;3.60;;;4.30;99.90;;;;;;5054473;28;20194;-77
2022/02/13 06:55:51;;;;;;;3.53;2.53;;;4.30;99.90;;;;;;5057236;28;20533;-77
2022/02/13 06:58:18;;;;;;;4.05;3.13;;;4.40;99.90;;;;;;5054286;28;20175;-76
2022/02/13 07:00:44;;;;;;;4.68;3.40;;;4.40;99.90;;;;;;5054027;28;20195;-81
2022/02/13 07:03:10;;;;;;;8.85;3.40;;;4.30;99.90;;;;;;5054405;28;20179;-82
2022/02/13 07:05:36;;;;;;;3.50;3.13;;;4.30;99.90;;;;;;5054592;28;20228;-76
2022/02/13 07:08:02;;;;;;;4.57;3.42;;;4.30;99.90;;;;;;5053788;28;20167;-75
2022/02/13 07:10:27;;;;;;;4.10;2.65;;;4.30;99.90;;;;;;5053860;28;20171;-75
2022/02/13 07:12:53;;;;;;;4.68;4.00;;;4.30;99.90;;;;;;5054295;28;20195;-75
2022/02/13 07:15:19;;;;;;;8.65;3.58;;;4.30;99.90;;;;;;5054222;28;20186;-80
2022/02/13 07:17:45;;;;;;;3.47;3.10;;;4.30;99.90;;;;;;5053943;28;20167;-78
2022/02/13 07:20:11;;;;;;;3.42;3.10;;;4.40;99.90;;;;;;5054238;28;20199;-81
2022/02/13 07:22:37;;;;;;;5.28;3.13;;;4.40;99.90;;;;;;5053881;28;20174;-81
2022/02/13 07:25:06;;;;;;;4.75;3.28;;;4.50;99.90;;;;;;5053766;28;20175;-77
2022/02/13 07:27:33;;;;;;;3.78;2.90;;;4.50;99.90;;;;;;5053233;28;20180;-77
2022/02/13 07:29:58;;;;;;;3.70;3.35;;;4.50;99.90;;;;;;5035478;28;20159;-77
2022/02/13 07:32:24;;;;;;;5.43;3.22;;;4.50;99.90;;;;;;5053654;28;20167;-76
2022/02/13 07:34:49;;;;;;;4.25;3.78;;;4.50;99.90;;;;;;5053564;28;20221;-76
2022/02/13 07:37:15;;;;;;;3.58;3.08;;;4.50;99.90;;;;;;5053618;28;20214;-77
2022/02/13 07:39:41;;;;;;;3.88;3.45;;;4.70;99.90;;;;;;5053490;28;20203;-77
2022/02/13 07:42:06;;;;;;;5.15;3.92;;;4.80;99.90;;;;;;5053524;28;20502;-76
2022/02/13 07:44:32;;;;;;;6.55;3.70;;;4.80;99.90;;;;;;5053317;28;20717;-79
2022/02/13 07:46:58;;;;;;;3.85;3.20;;;4.80;99.90;;;;;;5057035;28;20186;-77
2022/02/13 07:49:23;;;;;;;11.40;3.45;;;4.80;99.90;;;;;;5065799;28;20159;-77
2022/02/13 07:51:50;;;;;;;6.15;2.88;;;4.90;99.90;;;;;;5077615;28;20179;-76
2022/02/13 07:54:16;;;;;;;4.18;2.50;;;4.90;99.90;;;;;;5054726;28;20250;-77
2022/02/13 07:56:41;;;;;;;3.00;2.70;;;5.00;99.90;;;;;;5053295;28;20167;-75
2022/02/13 07:59:07;;;;;;;6.53;3.38;;;4.90;99.90;;;;;;5053522;28;20679;-76
2022/02/13 08:01:33;;;;;;;7.70;2.63;;;4.90;99.90;;;;;;5053766;28;20270;-77
2022/02/13 08:03:58;;;;;;;5.05;3.67;;;5.00;99.90;;;;;;5054696;28;20187;-78
2022/02/13 08:06:24;;;;;;;3.50;3.20;;;4.90;99.90;;;;;;5063371;28;20174;-76
2022/02/13 08:08:51;;;;;;;7.00;2.83;;;5.00;99.90;;;;;;5070080;28;20155;-83
2022/02/13 08:11:19;;;;;;;7.05;3.25;;;5.00;99.90;;;;;;5062538;28;20260;-78
2022/02/13 08:13:46;;;;;;;4.35;3.10;;;5.20;99.90;;;;;;5090470;28;20182;-77
2022/02/13 08:16:12;;;;;;;4.97;3.33;;;5.30;99.90;;;;;;5045645;28;20175;-78
2022/02/13 08:18:39;;;;;;;7.43;3.35;;;5.20;99.90;;;;;;5061611;28;20659;-79
2022/02/13 08:21:09;;;;;;;3.83;3.42;;;5.10;99.90;;;;;;5068841;28;20540;-80
2022/02/13 08:23:35;;;;;;;6.57;3.20;;;5.20;99.90;;;;;;5054715;28;20287;-82
2022/02/13 08:26:01;;;;;;;4.25;3.47;;;5.20;99.90;;;;;;5052874;28;20178;-81
2022/02/13 08:28:29;;;;;;;8.38;3.35;;;5.20;99.90;;;;;;5070009;28;20186;-77
2022/02/13 08:30:55;;;;;;;3.58;3.28;;;5.20;99.90;;;;;;5056733;28;20577;-77
2022/02/13 08:33:20;;;;;;;7.45;3.83;;;5.20;99.90;;;;;;5055568;28;20244;-79
2022/02/13 08:35:46;;;;;;;3.83;3.33;;;5.30;99.90;;;;;;5072272;28;20166;-77
2022/02/13 08:38:12;;;;;;;5.43;2.95;;;5.40;99.90;;;;;;5059449;28;20218;-84
2022/02/13 08:40:38;;;;;;;4.85;3.85;;;5.50;99.90;;;;;;5052471;28;20216;-76
2022/02/13 08:43:04;;;;;;;4.72;3.47;;;5.60;99.90;;;;;;5032594;28;20248;-76
2022/02/13 08:45:31;;;;;;;10.50;3.20;;;5.70;99.90;;;;;;5051778;28;20619;-75
2022/02/13 08:47:57;;;;;;;4.40;3.83;;;5.60;99.90;;;;;;5052350;28;20163;-76
2022/02/13 08:50:24;;;;;;;4.15;3.47;;;5.70;99.90;;;;;;5054877;28;20622;-77
2022/02/13 08:52:51;;;;;;;5.28;3.38;;;5.80;99.90;;;;;;5042406;28;20191;-78
2022/02/13 08:55:17;;;;;;;3.60;3.22;;;5.90;99.90;;;;;;5071426;28;20258;-76
2022/02/13 08:57:45;;;;;;;3.45;3.15;;;6.00;99.90;;;;;;5058340;28;20163;-84
2022/02/13 09:00:12;;;;;;;3.97;3.53;;;6.20;99.90;;;;;;5052206;28;20203;-76
2022/02/13 09:02:39;;;;;;;15.63;3.78;;;6.20;99.90;;;;;;5052003;28;20166;-78
2022/02/13 09:05:07;;;;;;;3.33;3.03;;;6.30;99.90;;;;;;5052321;28;20178;-77
2022/02/13 09:07:35;;;;;;;8.05;3.45;;;6.20;99.90;;;;;;5054723;28;20229;-76
2022/02/13 09:10:01;;;;;;;4.53;3.67;;;6.30;99.90;;;;;;5038432;28;20171;-76
2022/02/13 09:12:29;;;;;;;5.75;3.38;;;6.40;99.90;;;;;;5056106;28;20167;-76
2022/02/13 09:14:55;;;;;;;5.38;3.58;;;6.60;99.90;;;;;;5056296;28;20190;-77
2022/02/13 09:17:21;;;;;;;5.75;3.28;;;6.60;99.90;;;;;;5056726;28;20258;-77
2022/02/13 09:19:47;;;;;;;5.53;3.83;;;6.80;99.90;;;;;;5056082;28;20287;-76
2022/02/13 09:22:12;;;;;;;4.45;3.63;;;7.00;99.90;;;;;;5056166;28;20175;-76
2022/02/13 09:24:38;;;;;;;3.85;3.35;;;7.00;99.90;;;;;;5055992;28;20187;-74
2022/02/13 09:27:04;;;;;;;4.35;2.97;;;7.00;99.90;;;;;;5055914;28;20590;-75
2022/02/13 09:29:29;;;;;;;3.80;2.92;;;7.30;99.90;;;;;;5056045;28;20265;-77
2022/02/13 09:31:55;;;;;;;11.20;4.00;;;7.40;99.90;;;;;;5055770;28;20250;-77
2022/02/13 09:34:33;;;;;;;4.85;3.45;;;7.50;99.90;;;;;;5055855;28;20187;-78
2022/02/13 09:36:59;;;;;;;4.85;3.50;;;7.50;99.90;;;;;;5055871;28;20159;-87
2022/02/13 09:39:26;;;;;;;4.72;3.47;;;7.50;99.90;;;;;;5055531;28;20671;-76
2022/02/13 09:41:52;;;;;;;5.88;3.70;;;7.60;99.90;;;;;;5055486;28;20167;-77
2022/02/13 09:44:18;;;;;;;5.20;4.57;;;7.70;99.90;;;;;;5055502;28;20199;-76
2022/02/13 09:46:45;;;;;;;5.13;4.00;;;7.90;99.90;;;;;;5055723;28;20163;-75
2022/02/13 09:49:11;;;;;;;4.05;3.50;;;7.90;99.90;;;;;;5037342;28;20536;-75
2022/02/13 09:51:37;;;;;;;7.15;3.53;;;7.90;99.90;;;;;;5055895;28;20529;-76
2022/02/13 09:54:07;;;;;;;4.78;3.72;;;7.90;99.90;;;;;;5055358;28;20653;-75
2022/02/13 09:56:34;;;;;;;13.00;3.33;;;8.00;99.90;;;;;;5055536;28;20246;-76
2022/02/13 09:59:00;;;;;;;5.15;3.88;;;8.10;99.90;;;;;;5055226;28;20683;-76
2022/02/13 10:01:47;;;;;;;8.02;3.92;;;8.30;99.90;;;;;;5055553;28;20171;-75
2022/02/13 10:04:13;;;;;;;4.03;3.47;;;8.40;99.90;;;;;;5055424;28;20274;-75
2022/02/13 10:06:41;;;;;;;4.03;3.20;;;8.20;99.90;;;;;;5055426;28;20182;-75
2022/02/13 10:09:08;;;;;;;7.18;3.42;;;8.30;99.90;;;;;;5055799;28;20199;-78
2022/02/13 10:11:37;;;;;;;3.95;3.03;;;8.30;99.90;;;;;;5055498;28;20171;-75
2022/02/13 10:14:11;;;;;;;7.05;3.38;;;8.10;99.90;;;;;;5037909;28;20218;-75
2022/02/13 10:16:51;;;;;;;3.60;3.00;;;8.20;99.90;;;;;;5061936;28;20151;-76
2022/02/13 10:19:22;;;;;;;3.78;2.67;;;8.20;99.90;;;;;;5073874;28;20210;-76
2022/02/13 10:21:53;;;;;;;4.78;2.97;;;8.30;99.90;;;;;;5054811;28;20159;-80
2022/02/13 10:24:29;;;;;;;5.22;3.55;;;8.30;99.90;;;;;;5054731;28;20248;-75
2022/02/13 10:26:57;;;;;;;6.25;3.88;;;8.50;99.90;;;;;;5038482;28;20576;-86
2022/02/13 10:29:27;;;;;;;5.28;4.55;;;8.60;99.90;;;;;;5055714;28;20191;-79
2022/02/13 10:32:14;;;;;;;6.88;3.78;;;8.80;99.90;;;;;;5054760;28;20191;-76
2022/02/13 10:34:54;;;;;;;6.18;5.18;;;8.90;99.90;;;;;;5054604;28;20643;-74
2022/02/13 10:37:40;;;;;;;26.33;5.88;;;9.00;99.90;;;;;;5054304;28;20695;-75
2022/02/13 10:40:08;;;;;;;7.10;5.32;;;9.10;99.90;;;;;;5058680;28;20219;-80
2022/02/13 10:42:33;;;;;;;9.15;5.60;;;9.10;99.90;;;;;;5056603;28;20583;-75
2022/02/13 10:45:24;;;;;;;6.45;4.90;;;9.10;99.90;;;;;;5058609;28;20209;-77
2022/02/13 10:47:57;;;;;;;4.53;3.65;;;9.10;99.90;;;;;;5038224;28;20237;-77
2022/02/13 10:50:23;;;;;;;6.82;4.50;;;9.00;99.90;;;;;;5058016;28;20246;-76
2022/02/13 10:52:53;;;;;;;5.53;5.03;;;9.00;99.90;;;;;;5056654;28;20278;-75
2022/02/13 10:55:19;;;;;;;5.00;4.20;;;8.90;99.90;;;;;;5057835;28;20734;-74
2022/02/13 10:57:45;;;;;;;4.80;4.40;;;9.00;99.90;;;;;;5057517;28;20207;-82
2022/02/13 11:00:17;;;;;;;6.28;4.40;;;9.00;99.90;;;;;;5057642;28;20559;-78
2022/02/13 11:02:49;;;;;;;4.38;3.47;;;9.00;99.90;;;;;;5057488;28;20575;-78
2022/02/13 11:05:15;;;;;;;6.15;3.40;;;9.10;99.90;;;;;;5058053;28;20170;-79
2022/02/13 11:07:43;;;;;;;4.00;3.30;;;9.20;99.90;;;;;;5077647;28;20175;-78
2022/02/13 11:10:19;;;;;;;5.45;3.95;;;9.40;99.90;;;;;;5076900;28;20162;-78
2022/02/13 11:12:49;;;;;;;5.45;3.83;;;9.30;99.90;;;;;;5075900;28;20169;-80
2022/02/13 11:15:20;;;;;;;5.90;3.85;;;9.40;99.90;;;;;;5058586;28;20162;-78
2022/02/13 11:17:48;;;;;;;5.25;2.97;;;9.50;99.90;;;;;;5075031;28;20174;-77
2022/02/13 11:20:18;;;;;;;3.40;2.50;;;9.60;99.90;;;;;;5074507;28;20761;-81
2022/02/13 11:22:53;;;;;;;2.88;2.63;;;9.60;99.90;;;;;;5074889;28;20197;-80
2022/02/13 11:25:47;;;;;;;3.42;2.75;;;9.60;99.90;;;;;;5075316;28;20177;-78
2022/02/13 11:28:12;;;;;;;4.60;3.10;;;9.70;99.90;;;;;;5074969;28;20190;-80
2022/02/13 11:30:44;;;;;;;2.78;2.50;;;9.80;99.90;;;;;;5075811;28;20262;-80
2022/02/13 11:33:29;;;;;;;3.70;2.67;;;9.80;99.90;;;;;;5056872;28;20234;-78
2022/02/13 11:35:57;;;;;;;3.38;2.70;;;9.80;99.90;;;;;;5072803;28;20178;-79
2022/02/13 11:38:46;;;;;;;4.78;2.50;;;9.80;99.90;;;;;;5074493;28;20253;-81
2022/02/13 11:41:14;;;;;;;4.30;2.30;;;9.90;99.90;;;;;;5074696;28;20201;-79
2022/02/13 11:43:46;;;;;;;6.55;2.45;;;9.90;99.90;;;;;;5074398;28;20187;-78
2022/02/13 11:46:13;;;;;;;9.00;3.45;;;9.90;99.90;;;;;;5074043;28;20166;-81
2022/02/13 11:48:45;;;;;;;4.53;2.88;;;10.10;99.90;;;;;;5056018;28;20576;-84
2022/02/13 11:51:13;;;;;;;3.92;2.75;;;10.10;99.90;;;;;;5073170;28;20491;-77
2022/02/13 11:53:43;;;;;;;4.57;3.05;;;10.10;99.90;;;;;;5073349;28;20185;-77
2022/02/13 11:56:23;;;;;;;3.72;3.38;;;10.20;99.90;;;;;;5073221;28;20224;-77
2022/02/13 11:58:49;;;;;;;10.57;3.90;;;10.10;99.90;;;;;;5072762;28;20202;-76
2022/02/13 12:01:36;;;;;;;9.32;4.68;;;10.10;99.90;;;;;;5073329;28;20719;-78
2022/02/13 12:04:07;;;;;;;5.85;3.35;;;10.30;99.90;;;;;;5074362;28;20629;-83
2022/02/13 12:06:33;;;;;;;7.78;3.95;;;10.30;99.90;;;;;;5074249;28;20170;-84
2022/02/13 12:09:02;;;;;;;7.00;4.18;;;10.30;99.90;;;;;;5075842;28;20696;-82
2022/02/13 12:11:32;;;;;;;4.90;4.13;;;10.30;99.90;;;;;;5075668;28;20170;-80
2022/02/13 12:13:59;;;;;;;13.90;4.55;;;10.20;99.90;;;;;;5074351;28;20217;-81
2022/02/13 12:16:28;;;;;;;18.67;4.70;;;10.20;99.90;;;;;;5075056;28;20187;-86
2022/02/13 12:18:53;;;;;;;6.22;4.13;;;10.20;99.90;;;;;;5076018;28;20255;-85
2022/02/13 12:21:26;;;;;;;4.72;3.90;;;10.30;99.90;;;;;;5074826;28;20426;-82
2022/02/13 12:24:03;;;;;;;5.28;3.70;;;10.30;99.90;;;;;;5076121;28;20189;-86
2022/02/13 12:26:30;;;;;;;4.30;3.40;;;10.30;99.90;;;;;;5094402;28;20170;-80
2022/02/13 12:28:58;;;;;;;8.73;4.25;;;10.30;99.90;;;;;;5094453;28;20170;-80
2022/02/13 12:31:24;;;;;;;9.63;4.57;;;10.30;99.90;;;;;;5094262;28;20662;-84
2022/02/13 12:33:53;;;;;;;8.23;4.13;;;10.30;99.90;;;;;;5087851;28;20257;-88
2022/02/13 12:36:25;;;;;;;10.80;4.68;;;10.40;99.90;;;;;;5082358;28;20158;-84
2022/02/13 12:38:55;;;;;;;12.70;4.25;;;10.50;99.90;;;;;;5083372;28;20162;-90
2022/02/13 12:41:25;;;;;;;11.57;4.18;;;10.60;99.90;;;;;;5058826;28;20177;-91
2022/02/13 12:43:52;;;;;;;8.63;4.80;;;10.80;99.90;;;;;;5075854;28;20178;-89
2022/02/13 12:46:22;;;;;;;13.30;4.00;;;10.90;99.90;;;;;;5079632;28;20229;-78
2022/02/13 12:48:49;;;;;;;6.65;4.13;;;10.90;99.90;;;;;;5079253;28;20153;-82
2022/02/13 12:51:26;;;;;;;8.10;5.18;;;10.90;99.90;;;;;;5097211;28;20177;-85
2022/02/13 12:53:52;;;;;;;4.97;4.18;;;10.90;99.90;;;;;;5087134;28;20228;-81
2022/02/13 12:56:23;;;;;;;4.30;3.70;;;10.90;99.90;;;;;;5075851;28;20175;-90